createdAt,value
2024-05-09T00:05:01.854Z,88
2024-05-09T00:15:02.012Z,88
2024-05-09T00:35:02.437Z,88
2024-05-09T00:45:02.618Z,89
2024-05-09T01:15:03.180Z,89
2024-05-09T01:25:03.418Z,89
2024-05-09T01:35:03.618Z,89
2024-05-09T01:45:03.801Z,90
2024-05-09T02:15:04.424Z,90
2024-05-09T02:35:04.807Z,91
2024-05-09T02:45:04.993Z,91
2024-05-09T02:55:05.204Z,90
2024-05-09T03:05:05.400Z,90
2024-05-09T03:15:05.608Z,90
2024-05-09T03:25:05.809Z,90
2024-05-09T03:35:06.017Z,90
2024-05-09T03:45:06.196Z,91
2024-05-09T03:55:06.421Z,91
2024-05-09T04:05:06.629Z,91
2024-05-09T04:15:08.168Z,91
2024-05-09T04:25:07.019Z,91
2024-05-09T04:35:07.301Z,91
2024-05-09T04:45:07.421Z,91
2024-05-09T04:55:07.621Z,91
2024-05-09T05:05:08.005Z,92
2024-05-09T05:15:08.044Z,92
2024-05-09T05:25:08.223Z,92
2024-05-09T05:35:08.436Z,91
2024-05-09T05:45:09.796Z,91
2024-05-09T05:55:08.819Z,91
2024-05-09T06:05:09.074Z,88
2024-05-09T06:15:09.227Z,88
2024-05-09T06:25:09.412Z,86
2024-05-09T06:35:09.633Z,79
2024-05-09T06:45:09.807Z,80
2024-05-09T06:55:10.010Z,80
2024-05-09T07:05:10.311Z,76
2024-05-09T07:25:10.593Z,75
2024-05-09T07:35:10.846Z,73
2024-05-09T07:45:21.018Z,74
2024-05-09T07:55:11.347Z,70
2024-05-09T08:05:11.423Z,70
2024-05-09T08:15:11.579Z,66
2024-05-09T08:25:13.512Z,68
2024-05-09T08:35:11.960Z,62
2024-05-09T08:45:12.153Z,61
2024-05-09T08:55:12.428Z,60
2024-05-09T09:05:12.732Z,61
2024-05-09T09:15:12.746Z,55
2024-05-09T09:25:12.982Z,56
2024-05-09T09:35:13.122Z,57
2024-05-09T09:45:13.322Z,58
2024-05-09T09:55:13.609Z,60
2024-05-09T10:15:13.904Z,54
2024-05-09T10:25:14.129Z,56
2024-05-09T10:35:14.317Z,55
2024-05-09T10:45:14.516Z,58
2024-05-09T10:55:14.744Z,54
2024-05-09T11:05:14.954Z,56
2024-05-09T11:15:15.085Z,54
2024-05-09T11:25:15.322Z,52
2024-05-09T11:35:15.462Z,54
2024-05-09T11:45:15.676Z,54
2024-05-09T11:55:15.859Z,51
2024-05-09T12:05:16.179Z,51
2024-05-09T12:15:16.265Z,49
2024-05-09T12:25:16.660Z,48
2024-05-09T12:35:16.651Z,51
2024-05-09T12:45:16.809Z,54
2024-05-09T12:55:17.083Z,52
2024-05-09T13:05:17.339Z,52
2024-05-09T13:15:17.404Z,52
2024-05-09T13:25:17.607Z,54
2024-05-09T13:35:17.787Z,53
2024-05-09T13:45:18.038Z,48
2024-05-09T13:55:18.238Z,49
2024-05-09T14:05:18.414Z,50
2024-05-09T14:15:18.560Z,50
2024-05-09T14:25:18.838Z,50
2024-05-09T14:35:19.016Z,49
2024-05-09T14:45:19.145Z,50
2024-05-09T14:55:19.396Z,49
2024-05-09T15:05:19.620Z,47
2024-05-09T15:15:19.731Z,49
2024-05-09T15:25:19.940Z,50
2024-05-09T15:35:20.126Z,49
2024-05-09T15:45:20.323Z,50
2024-05-09T15:55:20.508Z,51
2024-05-09T16:05:20.778Z,51
2024-05-09T16:15:20.929Z,53
2024-05-09T16:25:21.116Z,54
2024-05-09T16:35:21.285Z,53
2024-05-09T16:45:21.478Z,54
2024-05-09T17:05:22.021Z,55
2024-05-09T17:15:22.054Z,53
2024-05-09T17:25:22.277Z,55
2024-05-09T17:35:22.463Z,55
2024-05-09T17:45:22.645Z,55
2024-05-09T17:55:22.910Z,56
2024-05-09T18:15:23.223Z,57
2024-05-09T18:25:23.447Z,57
2024-05-09T18:35:23.612Z,58
2024-05-09T18:45:23.799Z,60
2024-05-09T18:55:24.027Z,62
2024-05-09T19:05:24.347Z,65
2024-05-09T19:15:24.391Z,65
2024-05-09T19:25:24.635Z,68
2024-05-09T19:35:24.793Z,68
2024-05-09T19:45:25.013Z,68
2024-05-09T19:55:25.178Z,69
2024-05-09T20:05:25.573Z,68
2024-05-09T20:15:25.570Z,71
2024-05-09T20:25:25.780Z,73
2024-05-09T20:35:25.962Z,73
2024-05-09T20:45:26.269Z,73
2024-05-09T21:05:26.621Z,75
2024-05-09T21:15:26.753Z,75
2024-05-09T21:25:26.960Z,75
2024-05-09T21:55:27.539Z,78
2024-05-09T22:15:27.968Z,80
2024-05-09T22:25:30.190Z,80
2024-05-09T22:35:28.340Z,82
2024-05-09T22:45:28.537Z,81
2024-05-09T22:55:28.814Z,83
2024-05-09T23:05:29.224Z,85
2024-05-09T23:15:29.168Z,84
2024-05-09T23:25:29.332Z,83
2024-05-09T23:55:29.949Z,84
